Terminal Aerodrome Forecast
Issued by NWS Blacksburg, VA

Current Version | Previous Version | Text Only | Print | Product List | Glossary Off
Versions: 1 2 3 4 5 6 7 8 9 10 11 12 13 14 15

000
FTUS41 KRNK 141120
TAFBLF
TAF
KBLF 141120Z 1412/1512 27017G32KT P6SM -SHSN OVC035
      TEMPO 1412/1414 3SM -SHSN OVC020
     FM141400 29014G26KT P6SM -SHSN BKN030
     FM141800 29010G20KT P6SM BKN035
     FM150200 00000KT P6SM BKN110
     FM151100 VRB03KT P6SM BKN025=

USA.gov is the U.S. government's official web portal to all federal, state and local government web resources and services.